sensor_id;sensor_type;location;lat;lon;timestamp;temperature;humidity
19586;DHT22;9939;49.246;9.106;2023-04-28T00:02:33;11.00;99.90
19586;DHT22;9939;49.246;9.106;2023-04-28T00:05:21;10.90;99.90
19586;DHT22;9939;49.246;9.106;2023-04-28T00:08:11;11.00;99.90
19586;DHT22;9939;49.246;9.106;2023-04-28T00:10:59;11.10;99.90
19586;DHT22;9939;49.246;9.106;2023-04-28T00:13:47;11.10;99.90
19586;DHT22;9939;49.246;9.106;2023-04-28T00:16:34;11.20;99.90
19586;DHT22;9939;49.246;9.106;2023-04-28T00:19:22;11.40;99.90
19586;DHT22;9939;49.246;9.106;2023-04-28T00:22:09;11.20;99.90
19586;DHT22;9939;49.246;9.106;2023-04-28T00:24:56;11.10;99.90
19586;DHT22;9939;49.246;9.106;2023-04-28T00:27:45;10.90;99.90
19586;DHT22;9939;49.246;9.106;2023-04-28T00:30:32;10.90;99.90
19586;DHT22;9939;49.246;9.106;2023-04-28T00:33:20;11.00;99.90
19586;DHT22;9939;49.246;9.106;2023-04-28T00:36:07;11.20;99.90
19586;DHT22;9939;49.246;9.106;2023-04-28T00:38:56;11.30;99.90
19586;DHT22;9939;49.246;9.106;2023-04-28T00:41:43;11.40;99.90
19586;DHT22;9939;49.246;9.106;2023-04-28T00:44:30;11.40;99.90
19586;DHT22;9939;49.246;9.106;2023-04-28T00:47:18;11.30;99.90
19586;DHT22;9939;49.246;9.106;2023-04-28T00:50:05;11.10;99.90
19586;DHT22;9939;49.246;9.106;2023-04-28T00:52:53;11.10;99.90
19586;DHT22;9939;49.246;9.106;2023-04-28T00:55:40;11.20;99.90
19586;DHT22;9939;49.246;9.106;2023-04-28T00:58:28;10.90;99.90
19586;DHT22;9939;49.246;9.106;2023-04-28T01:01:16;10.60;99.90
19586;DHT22;9939;49.246;9.106;2023-04-28T01:04:04;10.60;99.90
19586;DHT22;9939;49.246;9.106;2023-04-28T01:06:52;10.80;99.90
19586;DHT22;9939;49.246;9.106;2023-04-28T01:09:42;10.60;99.90
19586;DHT22;9939;49.246;9.106;2023-04-28T01:12:32;10.60;99.90
19586;DHT22;9939;49.246;9.106;2023-04-28T01:15:20;10.90;99.90
19586;DHT22;9939;49.246;9.106;2023-04-28T01:18:11;10.70;99.90
19586;DHT22;9939;49.246;9.106;2023-04-28T01:20:59;10.80;99.90
19586;DHT22;9939;49.246;9.106;2023-04-28T01:23:46;10.90;99.90
19586;DHT22;9939;49.246;9.106;2023-04-28T01:26:34;10.90;99.90
19586;DHT22;9939;49.246;9.106;2023-04-28T01:29:21;11.20;99.90
19586;DHT22;9939;49.246;9.106;2023-04-28T01:32:10;11.10;99.90
19586;DHT22;9939;49.246;9.106;2023-04-28T01:34:58;10.90;99.90
19586;DHT22;9939;49.246;9.106;2023-04-28T01:37:46;11.00;99.90
19586;DHT22;9939;49.246;9.106;2023-04-28T01:40:33;11.00;99.90
19586;DHT22;9939;49.246;9.106;2023-04-28T01:43:20;10.70;99.90
19586;DHT22;9939;49.246;9.106;2023-04-28T01:46:08;10.80;99.90
19586;DHT22;9939;49.246;9.106;2023-04-28T01:48:55;10.80;99.90
19586;DHT22;9939;49.246;9.106;2023-04-28T01:51:42;10.80;99.90
19586;DHT22;9939;49.246;9.106;2023-04-28T01:54:30;10.90;99.90
19586;DHT22;9939;49.246;9.106;2023-04-28T01:57:19;10.60;99.90
19586;DHT22;9939;49.246;9.106;2023-04-28T02:00:09;10.70;99.90
19586;DHT22;9939;49.246;9.106;2023-04-28T02:03:07;10.80;99.90
19586;DHT22;9939;49.246;9.106;2023-04-28T02:05:55;10.80;99.90
19586;DHT22;9939;49.246;9.106;2023-04-28T02:08:42;10.80;99.90
19586;DHT22;9939;49.246;9.106;2023-04-28T02:11:31;10.70;99.90
19586;DHT22;9939;49.246;9.106;2023-04-28T02:14:19;10.60;99.90
19586;DHT22;9939;49.246;9.106;2023-04-28T02:17:06;10.70;99.90
19586;DHT22;9939;49.246;9.106;2023-04-28T02:19:54;10.80;99.90
19586;DHT22;9939;49.246;9.106;2023-04-28T02:22:42;10.80;99.90
19586;DHT22;9939;49.246;9.106;2023-04-28T02:25:30;10.90;99.90
19586;DHT22;9939;49.246;9.106;2023-04-28T02:28:17;10.70;99.90
19586;DHT22;9939;49.246;9.106;2023-04-28T02:31:05;10.60;99.90
19586;DHT22;9939;49.246;9.106;2023-04-28T02:33:53;10.50;99.90
19586;DHT22;9939;49.246;9.106;2023-04-28T02:36:40;10.60;99.90
19586;DHT22;9939;49.246;9.106;2023-04-28T02:39:27;10.90;99.90
19586;DHT22;9939;49.246;9.106;2023-04-28T02:42:16;10.90;99.90
19586;DHT22;9939;49.246;9.106;2023-04-28T02:45:04;10.90;99.90
19586;DHT22;9939;49.246;9.106;2023-04-28T02:47:51;10.70;99.90
19586;DHT22;9939;49.246;9.106;2023-04-28T02:50:39;10.60;99.90
19586;DHT22;9939;49.246;9.106;2023-04-28T02:53:26;10.60;99.90
19586;DHT22;9939;49.246;9.106;2023-04-28T02:56:14;10.50;99.90
19586;DHT22;9939;49.246;9.106;2023-04-28T02:59:01;10.30;99.90
19586;DHT22;9939;49.246;9.106;2023-04-28T03:01:50;10.30;99.90
19586;DHT22;9939;49.246;9.106;2023-04-28T03:04:40;10.70;99.90
19586;DHT22;9939;49.246;9.106;2023-04-28T03:07:28;10.80;99.90
19586;DHT22;9939;49.246;9.106;2023-04-28T03:10:15;10.80;99.90
19586;DHT22;9939;49.246;9.106;2023-04-28T03:13:02;10.60;99.90
19586;DHT22;9939;49.246;9.106;2023-04-28T03:15:50;10.60;99.90
19586;DHT22;9939;49.246;9.106;2023-04-28T03:18:38;10.40;99.90
19586;DHT22;9939;49.246;9.106;2023-04-28T03:21:25;10.30;99.90
19586;DHT22;9939;49.246;9.106;2023-04-28T03:24:14;10.40;99.90
19586;DHT22;9939;49.246;9.106;2023-04-28T03:27:03;10.40;99.90
19586;DHT22;9939;49.246;9.106;2023-04-28T03:29:51;10.30;99.90
19586;DHT22;9939;49.246;9.106;2023-04-28T03:32:39;10.30;99.90
19586;DHT22;9939;49.246;9.106;2023-04-28T03:35:27;10.40;99.90
19586;DHT22;9939;49.246;9.106;2023-04-28T03:38:15;10.50;99.90
19586;DHT22;9939;49.246;9.106;2023-04-28T03:41:02;10.40;99.90
19586;DHT22;9939;49.246;9.106;2023-04-28T03:44:12;10.30;99.90
19586;DHT22;9939;49.246;9.106;2023-04-28T03:47:07;10.20;99.90
19586;DHT22;9939;49.246;9.106;2023-04-28T03:49:55;10.50;99.90
19586;DHT22;9939;49.246;9.106;2023-04-28T03:52:44;10.40;99.90
19586;DHT22;9939;49.246;9.106;2023-04-28T03:55:32;10.40;99.90
19586;DHT22;9939;49.246;9.106;2023-04-28T03:58:19;10.20;99.90
19586;DHT22;9939;49.246;9.106;2023-04-28T04:01:08;10.10;99.90
19586;DHT22;9939;49.246;9.106;2023-04-28T04:03:55;10.20;99.90
19586;DHT22;9939;49.246;9.106;2023-04-28T04:06:43;10.20;99.90
19586;DHT22;9939;49.246;9.106;2023-04-28T04:09:32;10.10;99.90
19586;DHT22;9939;49.246;9.106;2023-04-28T04:12:20;10.40;99.90
19586;DHT22;9939;49.246;9.106;2023-04-28T04:15:07;10.70;99.90
19586;DHT22;9939;49.246;9.106;2023-04-28T04:17:55;10.50;99.90
19586;DHT22;9939;49.246;9.106;2023-04-28T04:20:45;10.40;99.90
19586;DHT22;9939;49.246;9.106;2023-04-28T04:23:32;10.30;99.90
19586;DHT22;9939;49.246;9.106;2023-04-28T04:26:20;10.20;99.90
19586;DHT22;9939;49.246;9.106;2023-04-28T04:29:09;10.20;99.90
19586;DHT22;9939;49.246;9.106;2023-04-28T04:31:56;10.20;99.90
19586;DHT22;9939;49.246;9.106;2023-04-28T04:34:44;10.30;99.90
19586;DHT22;9939;49.246;9.106;2023-04-28T04:37:32;10.70;99.90
19586;DHT22;9939;49.246;9.106;2023-04-28T04:40:21;10.90;99.90
19586;DHT22;9939;49.246;9.106;2023-04-28T04:43:09;10.90;99.90
19586;DHT22;9939;49.246;9.106;2023-04-28T04:46:03;10.80;99.90
19586;DHT22;9939;49.246;9.106;2023-04-28T04:48:51;10.70;99.90
19586;DHT22;9939;49.246;9.106;2023-04-28T04:51:39;10.70;99.90
19586;DHT22;9939;49.246;9.106;2023-04-28T04:54:26;10.60;99.90
19586;DHT22;9939;49.246;9.106;2023-04-28T04:57:14;10.70;99.90
19586;DHT22;9939;49.246;9.106;2023-04-28T05:00:33;11.00;99.90
19586;DHT22;9939;49.246;9.106;2023-04-28T05:03:22;11.00;99.90
19586;DHT22;9939;49.246;9.106;2023-04-28T05:06:09;10.50;99.90
19586;DHT22;9939;49.246;9.106;2023-04-28T05:09:05;10.80;99.90
19586;DHT22;9939;49.246;9.106;2023-04-28T05:11:53;11.10;99.90
19586;DHT22;9939;49.246;9.106;2023-04-28T05:14:40;11.00;99.90
19586;DHT22;9939;49.246;9.106;2023-04-28T05:17:28;10.70;99.90
19586;DHT22;9939;49.246;9.106;2023-04-28T05:20:15;10.90;99.90
19586;DHT22;9939;49.246;9.106;2023-04-28T05:23:03;10.90;99.90
19586;DHT22;9939;49.246;9.106;2023-04-28T05:25:51;11.00;99.90
19586;DHT22;9939;49.246;9.106;2023-04-28T05:28:38;10.80;99.90
19586;DHT22;9939;49.246;9.106;2023-04-28T05:31:28;11.20;99.90
19586;DHT22;9939;49.246;9.106;2023-04-28T05:34:15;10.90;99.90
19586;DHT22;9939;49.246;9.106;2023-04-28T05:37:03;11.30;99.90
19586;DHT22;9939;49.246;9.106;2023-04-28T05:39:52;11.20;99.90
19586;DHT22;9939;49.246;9.106;2023-04-28T05:42:39;11.00;99.90
19586;DHT22;9939;49.246;9.106;2023-04-28T05:45:27;11.10;99.90
19586;DHT22;9939;49.246;9.106;2023-04-28T05:48:16;10.90;99.90
19586;DHT22;9939;49.246;9.106;2023-04-28T05:51:03;11.00;99.90
19586;DHT22;9939;49.246;9.106;2023-04-28T05:53:51;11.10;99.90
19586;DHT22;9939;49.246;9.106;2023-04-28T05:56:39;11.40;99.90
19586;DHT22;9939;49.246;9.106;2023-04-28T05:59:28;11.20;99.90
19586;DHT22;9939;49.246;9.106;2023-04-28T06:02:16;11.00;99.90
19586;DHT22;9939;49.246;9.106;2023-04-28T06:05:08;11.10;99.90
19586;DHT22;9939;49.246;9.106;2023-04-28T06:07:56;11.00;99.90
19586;DHT22;9939;49.246;9.106;2023-04-28T06:10:43;11.10;99.90
19586;DHT22;9939;49.246;9.106;2023-04-28T06:13:31;11.20;99.90
19586;DHT22;9939;49.246;9.106;2023-04-28T06:16:18;11.40;99.90
19586;DHT22;9939;49.246;9.106;2023-04-28T06:19:06;11.10;99.90
19586;DHT22;9939;49.246;9.106;2023-04-28T06:21:54;10.90;99.90
19586;DHT22;9939;49.246;9.106;2023-04-28T06:24:41;11.10;99.90
19586;DHT22;9939;49.246;9.106;2023-04-28T06:27:33;11.50;99.90
19586;DHT22;9939;49.246;9.106;2023-04-28T06:30:21;11.10;99.90
19586;DHT22;9939;49.246;9.106;2023-04-28T06:33:09;11.10;99.90
19586;DHT22;9939;49.246;9.106;2023-04-28T06:35:58;11.10;99.90
19586;DHT22;9939;49.246;9.106;2023-04-28T06:38:45;11.10;99.90
19586;DHT22;9939;49.246;9.106;2023-04-28T06:41:33;11.40;99.90
19586;DHT22;9939;49.246;9.106;2023-04-28T06:44:22;11.30;99.90
19586;DHT22;9939;49.246;9.106;2023-04-28T06:47:09;11.20;99.90
19586;DHT22;9939;49.246;9.106;2023-04-28T06:49:58;10.90;99.90
19586;DHT22;9939;49.246;9.106;2023-04-28T06:52:45;11.00;99.90
19586;DHT22;9939;49.246;9.106;2023-04-28T06:55:33;10.90;99.90
19586;DHT22;9939;49.246;9.106;2023-04-28T06:58:20;11.00;99.90
19586;DHT22;9939;49.246;9.106;2023-04-28T07:01:08;11.30;99.90
19586;DHT22;9939;49.246;9.106;2023-04-28T07:03:55;11.00;99.90
19586;DHT22;9939;49.246;9.106;2023-04-28T07:06:43;11.10;99.90
19586;DHT22;9939;49.246;9.106;2023-04-28T07:09:30;10.90;99.90
19586;DHT22;9939;49.246;9.106;2023-04-28T07:12:18;10.90;99.90
19586;DHT22;9939;49.246;9.106;2023-04-28T07:15:05;11.10;99.90
19586;DHT22;9939;49.246;9.106;2023-04-28T07:17:54;11.10;99.90
19586;DHT22;9939;49.246;9.106;2023-04-28T07:20:41;11.20;99.90
19586;DHT22;9939;49.246;9.106;2023-04-28T07:23:29;11.10;99.90
19586;DHT22;9939;49.246;9.106;2023-04-28T07:26:16;11.10;99.90
19586;DHT22;9939;49.246;9.106;2023-04-28T07:29:03;11.10;99.90
19586;DHT22;9939;49.246;9.106;2023-04-28T07:31:51;11.20;99.90
19586;DHT22;9939;49.246;9.106;2023-04-28T07:34:38;10.90;99.90
19586;DHT22;9939;49.246;9.106;2023-04-28T07:37:25;10.90;99.90
19586;DHT22;9939;49.246;9.106;2023-04-28T07:40:13;10.90;99.90
19586;DHT22;9939;49.246;9.106;2023-04-28T07:43:00;11.00;99.90
19586;DHT22;9939;49.246;9.106;2023-04-28T07:45:48;11.00;99.90
19586;DHT22;9939;49.246;9.106;2023-04-28T07:48:36;11.00;99.90
19586;DHT22;9939;49.246;9.106;2023-04-28T07:51:23;11.00;99.90
19586;DHT22;9939;49.246;9.106;2023-04-28T07:54:10;11.00;99.90
19586;DHT22;9939;49.246;9.106;2023-04-28T07:56:58;11.10;99.90
19586;DHT22;9939;49.246;9.106;2023-04-28T07:59:45;11.50;99.90
19586;DHT22;9939;49.246;9.106;2023-04-28T08:02:32;11.20;99.90
19586;DHT22;9939;49.246;9.106;2023-04-28T08:05:20;11.50;99.90
19586;DHT22;9939;49.246;9.106;2023-04-28T08:08:08;11.60;99.90
19586;DHT22;9939;49.246;9.106;2023-04-28T08:10:55;11.50;99.90
19586;DHT22;9939;49.246;9.106;2023-04-28T08:13:43;11.70;99.90
19586;DHT22;9939;49.246;9.106;2023-04-28T08:16:30;11.80;99.90
19586;DHT22;9939;49.246;9.106;2023-04-28T08:19:18;11.80;99.90
19586;DHT22;9939;49.246;9.106;2023-04-28T08:22:05;11.90;99.90
19586;DHT22;9939;49.246;9.106;2023-04-28T08:24:53;12.00;99.90
19586;DHT22;9939;49.246;9.106;2023-04-28T08:27:41;12.00;99.90
19586;DHT22;9939;49.246;9.106;2023-04-28T08:30:28;12.10;99.90
19586;DHT22;9939;49.246;9.106;2023-04-28T08:33:15;12.20;99.90
19586;DHT22;9939;49.246;9.106;2023-04-28T08:36:03;12.10;99.90
19586;DHT22;9939;49.246;9.106;2023-04-28T08:38:51;12.20;99.90
19586;DHT22;9939;49.246;9.106;2023-04-28T08:41:39;12.30;99.90
19586;DHT22;9939;49.246;9.106;2023-04-28T08:44:27;12.30;99.90
19586;DHT22;9939;49.246;9.106;2023-04-28T08:47:14;12.30;99.90
19586;DHT22;9939;49.246;9.106;2023-04-28T08:50:05;12.20;99.90
19586;DHT22;9939;49.246;9.106;2023-04-28T08:52:53;12.20;99.90
19586;DHT22;9939;49.246;9.106;2023-04-28T08:55:42;12.20;99.90
19586;DHT22;9939;49.246;9.106;2023-04-28T08:58:30;12.50;99.90
19586;DHT22;9939;49.246;9.106;2023-04-28T09:01:17;12.60;99.90
19586;DHT22;9939;49.246;9.106;2023-04-28T09:04:04;12.90;99.90
19586;DHT22;9939;49.246;9.106;2023-04-28T09:06:52;12.90;99.90
19586;DHT22;9939;49.246;9.106;2023-04-28T09:09:40;12.70;99.90
19586;DHT22;9939;49.246;9.106;2023-04-28T09:12:36;12.30;99.90
19586;DHT22;9939;49.246;9.106;2023-04-28T09:15:33;12.50;99.90
19586;DHT22;9939;49.246;9.106;2023-04-28T09:18:21;12.60;99.90
19586;DHT22;9939;49.246;9.106;2023-04-28T09:21:08;12.80;99.90
19586;DHT22;9939;49.246;9.106;2023-04-28T09:23:56;13.00;99.90
19586;DHT22;9939;49.246;9.106;2023-04-28T09:26:49;12.90;99.90
19586;DHT22;9939;49.246;9.106;2023-04-28T09:29:50;13.30;99.90
19586;DHT22;9939;49.246;9.106;2023-04-28T09:32:38;13.60;99.90
19586;DHT22;9939;49.246;9.106;2023-04-28T09:35:38;13.60;99.90
19586;DHT22;9939;49.246;9.106;2023-04-28T09:38:25;13.40;99.90
19586;DHT22;9939;49.246;9.106;2023-04-28T09:41:16;13.30;99.90
19586;DHT22;9939;49.246;9.106;2023-04-28T09:44:10;13.40;99.90
19586;DHT22;9939;49.246;9.106;2023-04-28T09:46:57;13.30;99.90
19586;DHT22;9939;49.246;9.106;2023-04-28T09:49:54;13.10;99.90
19586;DHT22;9939;49.246;9.106;2023-04-28T09:52:43;13.10;99.90
19586;DHT22;9939;49.246;9.106;2023-04-28T09:55:31;13.10;99.90
19586;DHT22;9939;49.246;9.106;2023-04-28T09:58:22;13.10;99.90
19586;DHT22;9939;49.246;9.106;2023-04-28T10:01:10;13.30;99.90
19586;DHT22;9939;49.246;9.106;2023-04-28T10:03:59;13.30;99.90
19586;DHT22;9939;49.246;9.106;2023-04-28T10:06:47;13.20;99.90
19586;DHT22;9939;49.246;9.106;2023-04-28T10:09:34;13.20;99.90
19586;DHT22;9939;49.246;9.106;2023-04-28T10:12:22;13.20;99.90
19586;DHT22;9939;49.246;9.106;2023-04-28T10:15:10;13.20;99.90
19586;DHT22;9939;49.246;9.106;2023-04-28T10:17:59;13.30;99.90
19586;DHT22;9939;49.246;9.106;2023-04-28T10:20:47;13.30;99.90
19586;DHT22;9939;49.246;9.106;2023-04-28T10:29:47;13.80;99.90
19586;DHT22;9939;49.246;9.106;2023-04-28T10:32:34;14.00;99.90
19586;DHT22;9939;49.246;9.106;2023-04-28T10:38:16;13.70;99.90
19586;DHT22;9939;49.246;9.106;2023-04-28T10:41:03;13.90;99.90
19586;DHT22;9939;49.246;9.106;2023-04-28T10:43:51;14.00;99.90
19586;DHT22;9939;49.246;9.106;2023-04-28T10:55:32;13.80;99.90
19586;DHT22;9939;49.246;9.106;2023-04-28T11:04:07;13.80;99.90
19586;DHT22;9939;49.246;9.106;2023-04-28T11:07:09;13.70;99.90
19586;DHT22;9939;49.246;9.106;2023-04-28T11:09:57;13.90;99.90
19586;DHT22;9939;49.246;9.106;2023-04-28T11:16:03;13.90;99.90
19586;DHT22;9939;49.246;9.106;2023-04-28T11:18:57;14.10;99.90
19586;DHT22;9939;49.246;9.106;2023-04-28T11:21:45;14.20;99.90
19586;DHT22;9939;49.246;9.106;2023-04-28T11:24:32;14.30;99.90
19586;DHT22;9939;49.246;9.106;2023-04-28T11:27:23;14.50;99.90
19586;DHT22;9939;49.246;9.106;2023-04-28T11:30:20;14.50;99.90
19586;DHT22;9939;49.246;9.106;2023-04-28T11:33:12;14.60;99.90
19586;DHT22;9939;49.246;9.106;2023-04-28T11:36:00;14.80;99.90
19586;DHT22;9939;49.246;9.106;2023-04-28T11:38:47;15.00;99.90
19586;DHT22;9939;49.246;9.106;2023-04-28T11:41:35;15.00;99.90
19586;DHT22;9939;49.246;9.106;2023-04-28T11:44:24;15.10;99.90
19586;DHT22;9939;49.246;9.106;2023-04-28T11:47:11;15.50;99.90
19586;DHT22;9939;49.246;9.106;2023-04-28T11:49:59;15.90;99.90
19586;DHT22;9939;49.246;9.106;2023-04-28T11:52:48;15.90;99.90
19586;DHT22;9939;49.246;9.106;2023-04-28T11:55:39;15.90;99.90
19586;DHT22;9939;49.246;9.106;2023-04-28T11:58:26;15.80;99.90
19586;DHT22;9939;49.246;9.106;2023-04-28T12:01:13;15.80;99.90
19586;DHT22;9939;49.246;9.106;2023-04-28T12:04:02;16.00;99.90
19586;DHT22;9939;49.246;9.106;2023-04-28T12:06:57;16.30;99.90
19586;DHT22;9939;49.246;9.106;2023-04-28T12:12:32;16.30;99.90
19586;DHT22;9939;49.246;9.106;2023-04-28T12:15:22;16.40;99.90
19586;DHT22;9939;49.246;9.106;2023-04-28T12:18:11;16.60;99.90
19586;DHT22;9939;49.246;9.106;2023-04-28T12:20:59;16.40;99.90
19586;DHT22;9939;49.246;9.106;2023-04-28T12:23:47;16.30;99.90
19586;DHT22;9939;49.246;9.106;2023-04-28T12:26:34;16.00;99.90
19586;DHT22;9939;49.246;9.106;2023-04-28T12:29:34;15.60;99.90
19586;DHT22;9939;49.246;9.106;2023-04-28T12:32:35;15.50;99.90
19586;DHT22;9939;49.246;9.106;2023-04-28T12:35:24;15.40;99.90
19586;DHT22;9939;49.246;9.106;2023-04-28T12:38:11;15.30;99.90
19586;DHT22;9939;49.246;9.106;2023-04-28T12:40:59;15.30;99.90
19586;DHT22;9939;49.246;9.106;2023-04-28T12:43:47;15.40;99.90
19586;DHT22;9939;49.246;9.106;2023-04-28T12:46:34;15.30;99.90
19586;DHT22;9939;49.246;9.106;2023-04-28T12:49:23;15.30;99.90
19586;DHT22;9939;49.246;9.106;2023-04-28T12:52:11;15.30;99.90
19586;DHT22;9939;49.246;9.106;2023-04-28T12:54:58;15.30;99.90
19586;DHT22;9939;49.246;9.106;2023-04-28T12:57:46;15.40;99.90
19586;DHT22;9939;49.246;9.106;2023-04-28T13:00:33;15.60;99.90
19586;DHT22;9939;49.246;9.106;2023-04-28T13:03:21;16.00;99.90
19586;DHT22;9939;49.246;9.106;2023-04-28T13:06:09;16.20;99.90
19586;DHT22;9939;49.246;9.106;2023-04-28T13:08:57;16.50;99.90
19586;DHT22;9939;49.246;9.106;2023-04-28T13:11:44;16.80;99.90
19586;DHT22;9939;49.246;9.106;2023-04-28T13:14:31;17.00;99.90
19586;DHT22;9939;49.246;9.106;2023-04-28T13:17:19;17.30;99.90
19586;DHT22;9939;49.246;9.106;2023-04-28T13:20:06;17.50;99.90
19586;DHT22;9939;49.246;9.106;2023-04-28T13:22:54;17.30;99.90
19586;DHT22;9939;49.246;9.106;2023-04-28T13:25:41;17.30;99.90
19586;DHT22;9939;49.246;9.106;2023-04-28T13:28:28;17.50;99.90
19586;DHT22;9939;49.246;9.106;2023-04-28T13:31:16;17.20;99.90
19586;DHT22;9939;49.246;9.106;2023-04-28T13:34:03;17.00;99.90
19586;DHT22;9939;49.246;9.106;2023-04-28T13:36:52;17.20;99.90
19586;DHT22;9939;49.246;9.106;2023-04-28T13:39:40;17.70;99.90
19586;DHT22;9939;49.246;9.106;2023-04-28T13:42:27;19.40;99.90
19586;DHT22;9939;49.246;9.106;2023-04-28T13:45:15;19.90;99.90
19586;DHT22;9939;49.246;9.106;2023-04-28T13:48:04;19.60;99.90
19586;DHT22;9939;49.246;9.106;2023-04-28T13:50:51;19.60;99.90
19586;DHT22;9939;49.246;9.106;2023-04-28T13:53:39;19.30;99.90
19586;DHT22;9939;49.246;9.106;2023-04-28T13:56:26;18.80;99.90
19586;DHT22;9939;49.246;9.106;2023-04-28T13:59:14;19.80;99.90
19586;DHT22;9939;49.246;9.106;2023-04-28T14:02:01;20.00;99.90
19586;DHT22;9939;49.246;9.106;2023-04-28T14:04:49;19.80;99.90
19586;DHT22;9939;49.246;9.106;2023-04-28T14:07:37;19.10;99.90
19586;DHT22;9939;49.246;9.106;2023-04-28T14:10:25;18.70;99.90
19586;DHT22;9939;49.246;9.106;2023-04-28T14:13:12;18.00;99.90
19586;DHT22;9939;49.246;9.106;2023-04-28T14:16:00;17.70;99.90
19586;DHT22;9939;49.246;9.106;2023-04-28T14:18:47;17.40;99.90
19586;DHT22;9939;49.246;9.106;2023-04-28T14:21:35;17.30;99.90
19586;DHT22;9939;49.246;9.106;2023-04-28T14:24:23;17.60;99.90
19586;DHT22;9939;49.246;9.106;2023-04-28T14:27:13;17.50;99.90
19586;DHT22;9939;49.246;9.106;2023-04-28T14:30:01;17.30;99.90
19586;DHT22;9939;49.246;9.106;2023-04-28T14:32:48;17.40;99.90
19586;DHT22;9939;49.246;9.106;2023-04-28T14:35:36;17.50;99.90
19586;DHT22;9939;49.246;9.106;2023-04-28T14:38:23;17.70;99.90
19586;DHT22;9939;49.246;9.106;2023-04-28T14:41:10;18.20;99.90
19586;DHT22;9939;49.246;9.106;2023-04-28T14:43:58;18.70;99.90
19586;DHT22;9939;49.246;9.106;2023-04-28T14:46:45;18.50;99.90
19586;DHT22;9939;49.246;9.106;2023-04-28T14:49:33;18.50;99.90
19586;DHT22;9939;49.246;9.106;2023-04-28T14:52:21;18.00;99.90
19586;DHT22;9939;49.246;9.106;2023-04-28T14:55:08;17.50;99.90
19586;DHT22;9939;49.246;9.106;2023-04-28T14:57:56;17.30;99.90
19586;DHT22;9939;49.246;9.106;2023-04-28T15:00:43;17.10;99.90
19586;DHT22;9939;49.246;9.106;2023-04-28T15:03:30;16.70;99.90
19586;DHT22;9939;49.246;9.106;2023-04-28T15:06:18;16.30;99.90
19586;DHT22;9939;49.246;9.106;2023-04-28T15:09:06;16.10;99.90
19586;DHT22;9939;49.246;9.106;2023-04-28T15:11:53;15.80;99.90
19586;DHT22;9939;49.246;9.106;2023-04-28T15:14:40;15.80;99.90
19586;DHT22;9939;49.246;9.106;2023-04-28T15:17:28;15.70;99.90
19586;DHT22;9939;49.246;9.106;2023-04-28T15:20:15;15.70;99.90
19586;DHT22;9939;49.246;9.106;2023-04-28T15:23:03;15.60;99.90
19586;DHT22;9939;49.246;9.106;2023-04-28T15:25:50;15.70;99.90
19586;DHT22;9939;49.246;9.106;2023-04-28T15:28:39;15.50;99.90
19586;DHT22;9939;49.246;9.106;2023-04-28T15:31:27;15.60;99.90
19586;DHT22;9939;49.246;9.106;2023-04-28T15:34:15;15.80;99.90
19586;DHT22;9939;49.246;9.106;2023-04-28T15:37:04;15.70;99.90
19586;DHT22;9939;49.246;9.106;2023-04-28T15:39:53;15.50;99.90
19586;DHT22;9939;49.246;9.106;2023-04-28T15:42:40;15.60;99.90
19586;DHT22;9939;49.246;9.106;2023-04-28T15:45:35;15.30;99.90
19586;DHT22;9939;49.246;9.106;2023-04-28T15:48:23;15.10;99.90
19586;DHT22;9939;49.246;9.106;2023-04-28T15:51:11;15.10;99.90
19586;DHT22;9939;49.246;9.106;2023-04-28T15:53:58;15.00;99.90
19586;DHT22;9939;49.246;9.106;2023-04-28T15:56:46;14.80;99.90
19586;DHT22;9939;49.246;9.106;2023-04-28T15:59:34;14.20;99.90
19586;DHT22;9939;49.246;9.106;2023-04-28T16:02:21;14.20;99.90
19586;DHT22;9939;49.246;9.106;2023-04-28T16:05:10;14.00;99.90
19586;DHT22;9939;49.246;9.106;2023-04-28T16:07:58;13.80;99.90
19586;DHT22;9939;49.246;9.106;2023-04-28T16:10:46;13.90;99.90
19586;DHT22;9939;49.246;9.106;2023-04-28T16:13:34;14.10;99.90
19586;DHT22;9939;49.246;9.106;2023-04-28T16:16:23;14.10;99.90
19586;DHT22;9939;49.246;9.106;2023-04-28T16:19:11;14.00;99.90
19586;DHT22;9939;49.246;9.106;2023-04-28T16:22:02;14.20;99.90
19586;DHT22;9939;49.246;9.106;2023-04-28T16:24:50;14.70;99.90
19586;DHT22;9939;49.246;9.106;2023-04-28T16:27:39;14.70;99.90
19586;DHT22;9939;49.246;9.106;2023-04-28T16:30:27;14.70;99.90
19586;DHT22;9939;49.246;9.106;2023-04-28T16:33:14;15.10;99.90
19586;DHT22;9939;49.246;9.106;2023-04-28T16:36:02;15.90;99.90
19586;DHT22;9939;49.246;9.106;2023-04-28T16:38:49;15.80;99.90
19586;DHT22;9939;49.246;9.106;2023-04-28T16:41:37;15.40;99.90
19586;DHT22;9939;49.246;9.106;2023-04-28T16:44:24;15.60;99.90
19586;DHT22;9939;49.246;9.106;2023-04-28T16:47:12;15.60;99.90
19586;DHT22;9939;49.246;9.106;2023-04-28T16:50:01;15.90;99.90
19586;DHT22;9939;49.246;9.106;2023-04-28T16:52:48;16.20;99.90
19586;DHT22;9939;49.246;9.106;2023-04-28T16:55:36;16.60;99.90
19586;DHT22;9939;49.246;9.106;2023-04-28T16:58:23;18.00;99.90
19586;DHT22;9939;49.246;9.106;2023-04-28T17:01:11;20.70;99.90
19586;DHT22;9939;49.246;9.106;2023-04-28T17:03:58;22.70;99.90
19586;DHT22;9939;49.246;9.106;2023-04-28T17:06:46;23.60;99.90
19586;DHT22;9939;49.246;9.106;2023-04-28T17:09:34;23.90;99.90
19586;DHT22;9939;49.246;9.106;2023-04-28T17:12:21;23.50;99.90
19586;DHT22;9939;49.246;9.106;2023-04-28T17:15:12;23.10;99.90
19586;DHT22;9939;49.246;9.106;2023-04-28T17:17:59;22.30;99.90
19586;DHT22;9939;49.246;9.106;2023-04-28T17:20:48;20.60;99.90
19586;DHT22;9939;49.246;9.106;2023-04-28T17:23:36;19.20;99.90
19586;DHT22;9939;49.246;9.106;2023-04-28T17:26:24;18.20;99.90
19586;DHT22;9939;49.246;9.106;2023-04-28T17:29:11;17.50;99.90
19586;DHT22;9939;49.246;9.106;2023-04-28T17:31:58;17.00;99.90
19586;DHT22;9939;49.246;9.106;2023-04-28T17:34:46;16.60;99.90
19586;DHT22;9939;49.246;9.106;2023-04-28T17:37:33;16.20;99.90
19586;DHT22;9939;49.246;9.106;2023-04-28T17:40:21;16.20;99.90
19586;DHT22;9939;49.246;9.106;2023-04-28T17:43:10;16.20;99.90
19586;DHT22;9939;49.246;9.106;2023-04-28T17:45:58;16.10;99.90
19586;DHT22;9939;49.246;9.106;2023-04-28T17:48:45;15.90;99.90
19586;DHT22;9939;49.246;9.106;2023-04-28T17:51:32;15.70;99.90
19586;DHT22;9939;49.246;9.106;2023-04-28T17:54:20;15.50;99.90
19586;DHT22;9939;49.246;9.106;2023-04-28T17:57:07;15.60;99.90
19586;DHT22;9939;49.246;9.106;2023-04-28T17:59:54;15.50;99.90
19586;DHT22;9939;49.246;9.106;2023-04-28T18:02:42;15.20;99.90
19586;DHT22;9939;49.246;9.106;2023-04-28T18:05:29;15.00;99.90
19586;DHT22;9939;49.246;9.106;2023-04-28T18:08:17;14.90;99.90
19586;DHT22;9939;49.246;9.106;2023-04-28T18:11:04;15.00;99.90
19586;DHT22;9939;49.246;9.106;2023-04-28T18:13:54;14.80;99.90
19586;DHT22;9939;49.246;9.106;2023-04-28T18:16:41;14.80;99.90
19586;DHT22;9939;49.246;9.106;2023-04-28T18:19:29;14.70;99.90
19586;DHT22;9939;49.246;9.106;2023-04-28T18:22:16;14.50;99.90
19586;DHT22;9939;49.246;9.106;2023-04-28T18:25:04;14.40;99.90
19586;DHT22;9939;49.246;9.106;2023-04-28T18:27:51;14.20;99.90
19586;DHT22;9939;49.246;9.106;2023-04-28T18:30:40;14.10;99.90